createdAt,value
2022-10-14T00:00:22.826Z,79.30
2022-10-14T00:02:49.848Z,76.70
2022-10-14T00:05:16.109Z,80.90
2022-10-14T00:07:42.440Z,81.35
2022-10-14T00:10:08.695Z,92.90
2022-10-14T00:12:34.940Z,81.68
2022-10-14T00:15:01.197Z,86.97
2022-10-14T00:17:27.438Z,68.70
2022-10-14T00:19:53.694Z,75.35
2022-10-14T00:22:19.943Z,65.00
2022-10-14T00:24:46.189Z,69.32
2022-10-14T00:27:12.444Z,67.50
2022-10-14T00:29:38.706Z,69.03
2022-10-14T00:32:05.064Z,82.40
2022-10-14T00:34:31.329Z,97.35
2022-10-14T00:36:57.612Z,93.07
2022-10-14T00:39:23.894Z,93.90
2022-10-14T00:41:50.200Z,100.53
2022-10-14T00:44:16.461Z,99.35
2022-10-14T00:46:42.733Z,107.93
2022-10-14T00:49:08.992Z,112.75
2022-10-14T00:51:35.257Z,109.68
2022-10-14T00:54:01.529Z,121.68
2022-10-14T00:56:27.787Z,110.97
2022-10-14T00:58:54.184Z,108.50
2022-10-14T01:01:20.436Z,114.40
2022-10-14T01:03:46.720Z,115.82
2022-10-14T01:06:12.978Z,119.50
2022-10-14T01:08:39.264Z,107.72
2022-10-14T01:11:05.527Z,110.38
2022-10-14T01:13:31.793Z,120.68
2022-10-14T01:15:58.054Z,128.60
2022-10-14T01:18:24.316Z,116.57
2022-10-14T01:20:50.619Z,104.57
2022-10-14T01:23:16.867Z,97.40
2022-10-14T01:25:43.262Z,104.90
2022-10-14T01:28:09.517Z,99.47
2022-10-14T01:30:35.807Z,100.97
2022-10-14T01:33:02.092Z,104.10
2022-10-14T01:35:28.381Z,108.75
2022-10-14T01:37:54.643Z,108.10
2022-10-14T01:40:20.895Z,112.30
2022-10-14T01:42:47.209Z,111.75
2022-10-14T01:45:13.672Z,116.60
2022-10-14T01:47:39.928Z,104.22
2022-10-14T01:50:06.217Z,103.00
2022-10-14T01:52:32.466Z,108.95
2022-10-14T01:54:58.734Z,110.35
2022-10-14T01:57:24.987Z,120.68
2022-10-14T01:59:51.261Z,123.93
2022-10-14T02:02:17.510Z,119.43
2022-10-14T02:04:43.797Z,125.85
2022-10-14T02:07:10.300Z,118.25
2022-10-14T02:09:36.623Z,130.90
2022-10-14T02:12:02.890Z,125.15
2022-10-14T02:14:29.183Z,123.82
2022-10-14T02:16:55.951Z,120.60
2022-10-14T02:19:22.246Z,119.07
2022-10-14T02:21:48.640Z,122.82
2022-10-14T02:24:14.947Z,125.70
2022-10-14T02:26:41.199Z,127.30
2022-10-14T02:29:07.468Z,127.10
2022-10-14T02:31:33.760Z,124.65
2022-10-14T02:34:00.024Z,127.70
2022-10-14T02:36:26.309Z,139.20
2022-10-14T02:38:52.554Z,127.35
2022-10-14T02:41:18.802Z,136.15
2022-10-14T02:43:45.073Z,126.28
2022-10-14T02:46:11.369Z,124.65
2022-10-14T02:48:37.629Z,105.90
2022-10-14T02:51:03.896Z,107.38
2022-10-14T02:53:30.753Z,104.68
2022-10-14T02:55:57.019Z,118.20
2022-10-14T02:58:23.282Z,109.95
2022-10-14T03:00:49.558Z,111.72
2022-10-14T03:03:15.845Z,116.72
2022-10-14T03:05:42.086Z,117.20
2022-10-14T03:08:08.386Z,108.70
2022-10-14T03:10:34.683Z,102.50
2022-10-14T03:13:00.944Z,121.80
2022-10-14T03:15:27.219Z,113.68
2022-10-14T03:17:53.499Z,106.30
2022-10-14T03:20:19.774Z,111.88
2022-10-14T03:22:46.040Z,121.65
2022-10-14T03:25:12.299Z,127.22
2022-10-14T03:27:38.572Z,122.47
2022-10-14T03:30:04.822Z,124.55
2022-10-14T03:32:31.244Z,137.70
2022-10-14T03:34:57.700Z,142.23
2022-10-14T03:37:24.140Z,135.02
2022-10-14T03:39:50.419Z,142.85
2022-10-14T03:42:16.663Z,155.95
2022-10-14T03:44:43.392Z,168.85
2022-10-14T03:47:09.638Z,150.23
2022-10-14T03:49:35.914Z,156.95
2022-10-14T03:52:02.175Z,153.35
2022-10-14T03:54:28.468Z,149.77
2022-10-14T03:56:54.727Z,138.43
2022-10-14T03:59:20.986Z,152.25
2022-10-14T04:01:47.298Z,163.13
2022-10-14T04:04:13.775Z,148.20
2022-10-14T04:06:40.031Z,157.27
2022-10-14T04:09:06.310Z,146.70
2022-10-14T04:11:32.584Z,149.75
2022-10-14T04:13:58.875Z,147.35
2022-10-14T04:16:25.327Z,146.93
2022-10-14T04:18:51.620Z,144.00
2022-10-14T04:21:17.880Z,150.70
2022-10-14T04:23:44.146Z,147.85
2022-10-14T04:26:10.474Z,144.65
2022-10-14T04:28:36.834Z,149.20
2022-10-14T04:31:03.126Z,147.90
2022-10-14T04:33:29.461Z,145.35
2022-10-14T04:35:55.717Z,146.75
2022-10-14T04:38:21.970Z,145.10
2022-10-14T04:40:48.231Z,140.80
2022-10-14T04:43:14.498Z,126.55
2022-10-14T04:45:40.756Z,130.52
2022-10-14T04:48:07.026Z,125.53
2022-10-14T04:50:33.270Z,111.55
2022-10-14T04:52:59.535Z,114.35
2022-10-14T04:55:25.778Z,105.50
2022-10-14T04:57:52.034Z,107.70
2022-10-14T05:00:18.372Z,103.57
2022-10-14T05:02:44.638Z,102.47
2022-10-14T05:05:10.901Z,112.95
2022-10-14T05:07:37.197Z,97.75
2022-10-14T05:10:04.578Z,93.25
2022-10-14T05:12:30.831Z,90.30
2022-10-14T05:14:57.091Z,96.60
2022-10-14T05:17:23.357Z,104.53
2022-10-14T05:19:49.674Z,101.78
2022-10-14T05:22:15.921Z,100.50
2022-10-14T05:24:42.178Z,95.72
2022-10-14T05:27:08.422Z,97.57
2022-10-14T05:29:34.706Z,98.88
2022-10-14T05:32:00.969Z,103.95
2022-10-14T05:34:27.232Z,109.85
2022-10-14T05:36:53.495Z,106.45
2022-10-14T05:39:19.766Z,103.13
2022-10-14T05:41:46.006Z,95.85
2022-10-14T05:44:13.302Z,98.35
2022-10-14T05:46:39.554Z,98.25
2022-10-14T05:49:06.023Z,102.70
2022-10-14T05:51:32.521Z,91.22
2022-10-14T05:53:58.784Z,99.93
2022-10-14T05:56:25.096Z,90.68
2022-10-14T05:58:51.353Z,93.07
2022-10-14T06:01:17.598Z,94.00
2022-10-14T06:03:43.867Z,89.55
2022-10-14T06:06:10.123Z,93.68
2022-10-14T06:08:36.415Z,91.32
2022-10-14T06:11:02.991Z,95.07
2022-10-14T06:13:29.284Z,92.65
2022-10-14T06:15:55.538Z,96.28
2022-10-14T06:18:22.000Z,94.70
2022-10-14T06:20:48.276Z,84.47
2022-10-14T06:23:14.535Z,91.55
2022-10-14T06:25:40.807Z,83.38
2022-10-14T06:28:07.071Z,92.22
2022-10-14T06:30:33.635Z,87.78
2022-10-14T06:32:59.896Z,89.03
2022-10-14T06:35:26.139Z,94.07
2022-10-14T06:37:52.399Z,96.07
2022-10-14T06:40:18.661Z,100.05
2022-10-14T06:42:45.294Z,94.03
2022-10-14T06:45:11.543Z,90.65
2022-10-14T06:47:37.783Z,90.85
2022-10-14T06:50:04.036Z,100.88
2022-10-14T06:52:30.297Z,105.82
2022-10-14T06:54:56.552Z,111.50
2022-10-14T06:57:22.828Z,113.30
2022-10-14T06:59:49.145Z,109.53
2022-10-14T07:02:15.438Z,111.03
2022-10-14T07:04:41.801Z,118.25
2022-10-14T07:07:08.439Z,126.10
2022-10-14T07:09:34.690Z,147.20
2022-10-14T07:12:01.417Z,141.40
2022-10-14T07:14:27.698Z,142.88
2022-10-14T07:16:54.029Z,151.23
2022-10-14T07:19:20.285Z,145.57
2022-10-14T07:21:46.727Z,133.90
2022-10-14T07:24:12.974Z,132.95
2022-10-14T07:26:39.250Z,123.35
2022-10-14T07:29:05.534Z,115.95
2022-10-14T07:31:31.807Z,113.70
2022-10-14T07:33:58.068Z,102.22
2022-10-14T07:36:24.434Z,102.05
2022-10-14T07:38:50.804Z,94.60
2022-10-14T07:41:17.190Z,83.80
2022-10-14T07:43:43.493Z,88.22
2022-10-14T07:46:09.780Z,99.90
2022-10-14T07:48:55.811Z,97.78
2022-10-14T07:51:22.440Z,72.15
2022-10-14T07:53:48.690Z,75.18
2022-10-14T07:56:14.995Z,69.55
2022-10-14T07:58:44.518Z,78.22
2022-10-14T08:01:11.103Z,79.38
2022-10-14T08:03:37.348Z,79.35
2022-10-14T08:06:03.658Z,84.35
2022-10-14T08:08:29.926Z,73.00
2022-10-14T08:10:56.189Z,84.57
2022-10-14T08:13:22.454Z,86.47
2022-10-14T08:15:48.767Z,96.82
2022-10-14T08:18:15.023Z,87.35
2022-10-14T08:20:41.705Z,89.30
2022-10-14T08:23:07.968Z,85.75
2022-10-14T08:25:34.361Z,89.00
2022-10-14T08:28:00.630Z,80.25
2022-10-14T08:30:26.965Z,99.82
2022-10-14T08:32:53.224Z,80.05
2022-10-14T08:35:19.470Z,60.97
2022-10-14T08:37:45.727Z,60.47
2022-10-14T08:40:11.988Z,62.90
2022-10-14T08:42:38.249Z,66.05
2022-10-14T08:45:08.670Z,62.88
2022-10-14T08:47:34.910Z,60.55
2022-10-14T08:50:03.983Z,69.57
2022-10-14T08:52:33.651Z,77.25
2022-10-14T08:55:02.807Z,68.15
2022-10-14T08:57:29.097Z,100.57
2022-10-14T08:59:55.403Z,133.23
2022-10-14T09:02:21.846Z,69.60
2022-10-14T09:04:48.585Z,67.25
2022-10-14T09:07:14.863Z,66.60
2022-10-14T09:09:41.147Z,63.92
2022-10-14T09:12:07.424Z,73.03
2022-10-14T09:14:33.717Z,126.82
2022-10-14T09:17:00.012Z,70.70
2022-10-14T09:19:27.051Z,85.07
2022-10-14T09:21:53.752Z,72.55
2022-10-14T09:24:20.158Z,57.28
2022-10-14T09:26:46.495Z,68.32
2022-10-14T09:29:12.823Z,77.18
2022-10-14T09:31:39.107Z,116.43
2022-10-14T09:34:05.372Z,60.38
2022-10-14T09:36:31.845Z,58.75
2022-10-14T09:39:02.284Z,83.95
2022-10-14T09:41:31.697Z,97.22
2022-10-14T09:43:57.961Z,99.53
2022-10-14T09:46:24.226Z,97.07
2022-10-14T09:48:50.487Z,90.47
2022-10-14T09:51:16.748Z,88.18
2022-10-14T09:53:45.162Z,53.72
2022-10-14T09:56:11.420Z,65.68
2022-10-14T09:58:37.694Z,128.05
2022-10-14T10:01:04.011Z,93.38
2022-10-14T10:03:32.435Z,84.43
2022-10-14T10:05:58.755Z,78.88
2022-10-14T10:08:26.507Z,88.97
2022-10-14T10:10:52.763Z,70.05
2022-10-14T10:13:19.154Z,64.63
2022-10-14T10:15:45.412Z,62.28
2022-10-14T10:18:11.675Z,63.38
2022-10-14T10:20:37.928Z,60.78
2022-10-14T10:23:04.197Z,93.90
2022-10-14T10:25:30.463Z,111.60
2022-10-14T10:27:56.747Z,121.50
2022-10-14T10:30:24.503Z,125.22
2022-10-14T10:32:50.771Z,102.05
2022-10-14T10:35:17.036Z,143.80
2022-10-14T10:37:44.999Z,136.18
2022-10-14T10:42:39.748Z,59.70
2022-10-14T10:45:06.074Z,66.20
2022-10-14T10:47:32.375Z,58.70
2022-10-14T10:49:58.645Z,73.55
2022-10-14T10:52:25.132Z,99.50
2022-10-14T10:54:51.498Z,74.47
2022-10-14T10:57:17.745Z,75.10
2022-10-14T10:59:44.040Z,92.93
2022-10-14T11:02:10.732Z,101.65
2022-10-14T11:04:37.074Z,96.53
2022-10-14T11:07:27.004Z,83.45
2022-10-14T11:10:12.937Z,105.28
2022-10-14T11:12:39.201Z,113.28
2022-10-14T11:15:05.495Z,99.28
2022-10-14T11:17:31.845Z,114.15
2022-10-14T11:19:58.926Z,163.85
2022-10-14T11:22:28.810Z,190.40
2022-10-14T11:24:58.402Z,167.02
2022-10-14T11:27:25.020Z,106.60
2022-10-14T11:29:51.523Z,94.47
2022-10-14T11:32:17.786Z,112.22
2022-10-14T11:34:44.092Z,151.70
2022-10-14T11:37:10.345Z,185.80
2022-10-14T11:39:36.627Z,165.80
2022-10-14T11:42:03.759Z,127.13
2022-10-14T11:44:30.125Z,104.57
2022-10-14T11:46:56.559Z,130.75
2022-10-14T11:49:22.818Z,98.57
2022-10-14T11:51:49.100Z,143.43
2022-10-14T11:54:15.398Z,216.05
2022-10-14T11:56:41.648Z,161.73
2022-10-14T11:59:17.095Z,139.30
2022-10-14T12:01:43.343Z,121.00
2022-10-14T12:04:09.638Z,136.25
2022-10-14T12:06:35.957Z,102.80
2022-10-14T12:09:02.206Z,104.32
2022-10-14T12:11:28.784Z,116.30
2022-10-14T12:13:55.056Z,110.05
2022-10-14T12:16:21.342Z,99.07
2022-10-14T12:18:47.615Z,135.55
2022-10-14T12:21:14.114Z,130.18
2022-10-14T12:23:40.368Z,199.63
2022-10-14T12:26:06.624Z,140.13
2022-10-14T12:28:32.924Z,130.95
2022-10-14T12:31:00.675Z,122.78
2022-10-14T12:33:26.944Z,118.28
2022-10-14T12:35:53.450Z,107.15
2022-10-14T12:38:19.702Z,90.95
2022-10-14T12:40:49.197Z,101.95
2022-10-14T12:43:15.473Z,105.97
2022-10-14T12:48:09.226Z,117.97
2022-10-14T12:50:35.504Z,119.53
2022-10-14T12:53:01.795Z,114.57
2022-10-14T12:55:28.090Z,94.55
2022-10-14T12:57:54.988Z,82.53
2022-10-14T13:00:21.250Z,83.05
2022-10-14T13:02:47.735Z,92.88
2022-10-14T13:05:14.006Z,167.68
2022-10-14T13:07:41.775Z,257.27
2022-10-14T13:10:08.498Z,151.05
2022-10-14T13:12:35.100Z,110.50
2022-10-14T13:15:01.396Z,91.88
2022-10-14T13:17:28.095Z,102.75
2022-10-14T13:19:54.342Z,114.93
2022-10-14T13:22:20.618Z,113.78
2022-10-14T13:24:46.872Z,110.40
2022-10-14T13:30:15.990Z,134.95
2022-10-14T13:32:42.263Z,146.07
2022-10-14T13:35:09.087Z,150.68
2022-10-14T13:37:35.403Z,175.73
2022-10-14T13:40:01.703Z,190.50
2022-10-14T13:42:28.860Z,176.60
2022-10-14T13:44:55.157Z,240.23
2022-10-14T13:47:21.710Z,159.98
2022-10-14T13:49:48.137Z,103.80
2022-10-14T13:52:14.425Z,100.03
2022-10-14T13:54:40.700Z,123.47
2022-10-14T13:57:38.359Z,135.98
2022-10-14T14:02:39.774Z,96.05
2022-10-14T14:05:06.048Z,86.85
2022-10-14T14:08:08.008Z,95.53
2022-10-14T14:10:18.602Z,93.55
2022-10-14T14:12:45.004Z,105.45
2022-10-14T14:15:11.403Z,114.82
2022-10-14T14:17:37.661Z,103.30
2022-10-14T14:20:03.958Z,88.35
2022-10-14T14:22:30.294Z,94.38
2022-10-14T14:25:00.528Z,100.32
2022-10-14T14:27:30.287Z,96.13
2022-10-14T14:29:56.603Z,170.43
2022-10-14T14:32:23.000Z,202.00
2022-10-14T14:34:49.374Z,120.53
2022-10-14T14:40:02.102Z,111.90
2022-10-14T14:42:28.529Z,164.10
2022-10-14T14:44:54.806Z,174.52
2022-10-14T14:47:21.402Z,153.68
2022-10-14T14:49:47.919Z,128.30
2022-10-14T14:52:14.171Z,135.52
2022-10-14T14:54:40.435Z,140.15
2022-10-14T14:57:06.690Z,149.85
2022-10-14T14:59:33.003Z,168.13
2022-10-14T15:04:26.479Z,208.50
2022-10-14T15:09:56.359Z,166.85
2022-10-14T15:12:22.865Z,191.63
2022-10-14T15:14:49.286Z,185.43
2022-10-14T15:17:15.779Z,163.50
2022-10-14T15:19:42.027Z,134.77
2022-10-14T15:22:08.287Z,104.50
2022-10-14T15:24:34.554Z,104.78
2022-10-14T15:27:00.860Z,92.38
2022-10-14T15:29:27.126Z,103.93
2022-10-14T15:31:53.374Z,93.45
2022-10-14T15:34:19.664Z,102.32
2022-10-14T15:36:45.968Z,94.43
2022-10-14T15:39:13.621Z,91.72
2022-10-14T15:41:39.932Z,79.10
2022-10-14T15:44:06.195Z,93.03
2022-10-14T15:46:51.102Z,98.97
2022-10-14T15:49:17.368Z,100.90
2022-10-14T15:51:43.676Z,110.57
2022-10-14T15:54:09.947Z,109.97
2022-10-14T15:56:36.256Z,99.18
2022-10-14T15:59:02.508Z,101.35
2022-10-14T16:01:28.877Z,101.30
2022-10-14T16:03:55.403Z,99.75
2022-10-14T16:06:22.739Z,125.53
2022-10-14T16:08:49.169Z,119.85
2022-10-14T16:11:15.415Z,126.93
2022-10-14T16:13:41.680Z,148.32
2022-10-14T16:16:07.955Z,143.65
2022-10-14T16:18:34.212Z,147.77
2022-10-14T16:21:00.486Z,161.45
2022-10-14T16:23:29.567Z,177.15
2022-10-14T16:26:00.138Z,190.50
2022-10-14T16:28:26.453Z,208.88
2022-10-14T16:30:52.793Z,207.60
2022-10-14T16:33:19.062Z,263.08
2022-10-14T16:35:45.310Z,171.43
2022-10-14T16:38:11.589Z,118.68
2022-10-14T16:40:37.839Z,123.53
2022-10-14T16:43:04.095Z,109.97
2022-10-14T16:45:30.350Z,98.38
2022-10-14T16:47:57.149Z,93.15
2022-10-14T16:50:23.441Z,88.78
2022-10-14T16:53:08.659Z,96.03
2022-10-14T16:55:34.927Z,124.63
2022-10-14T16:58:01.191Z,160.95
2022-10-14T17:00:27.456Z,191.25
2022-10-14T17:02:54.868Z,100.38
2022-10-14T17:05:21.115Z,82.13
2022-10-14T17:07:47.376Z,75.75
2022-10-14T17:10:13.638Z,95.28
2022-10-14T17:12:39.962Z,85.47
2022-10-14T17:15:06.216Z,82.75
2022-10-14T17:17:32.492Z,101.57
2022-10-14T17:19:58.823Z,184.73
2022-10-14T17:22:25.387Z,177.98
2022-10-14T17:24:51.886Z,141.93
2022-10-14T17:27:24.100Z,92.07
2022-10-14T17:29:50.452Z,76.95
2022-10-14T17:32:17.509Z,85.40
2022-10-14T17:34:43.908Z,115.30
2022-10-14T17:37:10.177Z,142.90
2022-10-14T17:39:37.224Z,124.05
2022-10-14T17:42:03.839Z,101.27
2022-10-14T17:44:30.104Z,119.07
2022-10-14T17:46:57.032Z,103.47
2022-10-14T17:49:23.344Z,94.78
2022-10-14T17:51:49.616Z,104.70
2022-10-14T17:54:15.875Z,173.90
2022-10-14T17:56:42.970Z,189.70
2022-10-14T17:59:09.247Z,185.07
2022-10-14T18:01:37.996Z,143.93
2022-10-14T18:04:21.887Z,110.95
2022-10-14T18:06:48.428Z,99.53
2022-10-14T18:09:14.722Z,100.03
2022-10-14T18:12:07.724Z,98.95
2022-10-14T18:14:28.973Z,101.28
2022-10-14T18:16:55.235Z,104.85
2022-10-14T18:19:21.823Z,118.03
2022-10-14T18:21:48.118Z,145.95
2022-10-14T18:24:14.395Z,127.28
2022-10-14T18:26:41.107Z,126.60
2022-10-14T18:29:07.469Z,125.82
2022-10-14T18:31:33.790Z,123.15
2022-10-14T18:34:00.087Z,106.40
2022-10-14T18:36:26.339Z,91.88
2022-10-14T18:38:52.604Z,87.68
2022-10-14T18:41:18.892Z,82.53
2022-10-14T18:43:45.170Z,75.57
2022-10-14T18:46:13.120Z,118.22
2022-10-14T18:51:05.565Z,73.60
2022-10-14T18:53:31.814Z,84.95
2022-10-14T18:56:00.927Z,72.50
2022-10-14T18:58:28.036Z,110.97
2022-10-14T19:00:54.339Z,173.00
2022-10-14T19:03:20.672Z,171.05
2022-10-14T19:05:47.149Z,132.88
2022-10-14T19:10:40.614Z,102.78
2022-10-14T19:13:08.094Z,95.80
2022-10-14T19:15:45.197Z,82.75
2022-10-14T19:18:15.100Z,71.10
2022-10-14T19:20:41.844Z,87.55
2022-10-14T19:23:08.130Z,94.43
2022-10-14T19:25:36.024Z,97.82
2022-10-14T19:28:02.276Z,96.20
2022-10-14T19:30:28.535Z,99.95
2022-10-14T19:32:54.817Z,100.32
2022-10-14T19:35:21.656Z,105.05
2022-10-14T19:37:48.039Z,98.47
2022-10-14T19:40:14.309Z,101.80
2022-10-14T19:42:40.615Z,108.57
2022-10-14T19:45:06.863Z,108.38
2022-10-14T19:47:33.123Z,102.68
2022-10-14T19:49:59.409Z,115.68
2022-10-14T19:52:25.683Z,134.38
2022-10-14T19:54:51.933Z,118.93
2022-10-14T19:57:18.205Z,127.82
2022-10-14T19:59:44.492Z,125.40
2022-10-14T20:02:10.747Z,126.05
2022-10-14T20:04:36.990Z,136.48
2022-10-14T20:07:03.244Z,129.32
2022-10-14T20:09:29.576Z,132.48
2022-10-14T20:11:55.922Z,135.60
2022-10-14T20:14:22.245Z,112.03
2022-10-14T20:16:52.277Z,89.72
2022-10-14T20:19:21.410Z,66.45
2022-10-14T20:21:47.793Z,82.47
2022-10-14T20:24:14.048Z,70.47
2022-10-14T20:26:41.339Z,76.47
2022-10-14T20:29:07.587Z,76.90
2022-10-14T20:31:33.838Z,75.18
2022-10-14T20:34:00.096Z,66.80
2022-10-14T20:36:26.361Z,62.10
2022-10-14T20:38:52.631Z,67.80
2022-10-14T20:41:18.897Z,62.92
2022-10-14T20:43:45.159Z,61.35
2022-10-14T20:46:11.419Z,57.35
2022-10-14T20:48:37.694Z,59.63
2022-10-14T20:51:03.996Z,71.47
2022-10-14T20:53:31.044Z,72.45
2022-10-14T20:55:57.307Z,66.33
2022-10-14T20:58:24.024Z,85.82
2022-10-14T21:00:50.295Z,114.22
2022-10-14T21:03:16.689Z,126.65
2022-10-14T21:05:42.944Z,176.13
2022-10-14T21:08:09.228Z,202.77
2022-10-14T21:10:35.792Z,205.00
2022-10-14T21:13:02.295Z,175.98
2022-10-14T21:15:28.544Z,150.13
2022-10-14T21:17:54.852Z,128.27
2022-10-14T21:20:21.112Z,94.60
2022-10-14T21:22:47.396Z,69.07
2022-10-14T21:25:13.732Z,59.28
2022-10-14T21:27:40.034Z,58.95
2022-10-14T21:30:06.292Z,59.05
2022-10-14T21:32:32.548Z,57.83
2022-10-14T21:34:59.005Z,56.75
2022-10-14T21:37:25.385Z,56.47
2022-10-14T21:39:51.643Z,56.75
2022-10-14T21:42:17.912Z,56.15
2022-10-14T21:44:44.162Z,57.55
2022-10-14T21:47:10.439Z,57.35
2022-10-14T21:49:36.691Z,85.07
2022-10-14T21:52:02.951Z,135.48
2022-10-14T21:54:29.201Z,157.18
2022-10-14T21:59:22.707Z,161.88
2022-10-14T22:01:49.004Z,91.10
2022-10-14T22:04:15.257Z,69.05
2022-10-14T22:06:41.631Z,66.15
2022-10-14T22:09:07.879Z,77.63
2022-10-14T22:11:34.153Z,94.75
2022-10-14T22:14:00.404Z,112.07
2022-10-14T22:16:28.740Z,122.75
2022-10-14T22:18:55.089Z,148.80
2022-10-14T22:21:21.356Z,156.98
2022-10-14T22:23:47.617Z,155.82
2022-10-14T22:26:13.896Z,162.52
2022-10-14T22:28:40.187Z,166.07
2022-10-14T22:31:06.495Z,159.02
2022-10-14T22:33:32.747Z,148.65
2022-10-14T22:35:59.123Z,109.72
2022-10-14T22:38:25.379Z,94.20
2022-10-14T22:40:51.630Z,86.93
2022-10-14T22:43:17.872Z,81.45
2022-10-14T22:45:44.122Z,66.57
2022-10-14T22:48:10.370Z,65.80
2022-10-14T22:50:36.651Z,68.35
2022-10-14T22:53:02.886Z,75.70
2022-10-14T22:55:29.290Z,71.07
2022-10-14T22:57:55.547Z,68.72
2022-10-14T23:00:21.886Z,68.63
2022-10-14T23:02:48.181Z,65.28
2022-10-14T23:05:14.468Z,87.95
2022-10-14T23:07:40.926Z,114.68
2022-10-14T23:10:07.186Z,149.57
2022-10-14T23:12:33.444Z,115.25
2022-10-14T23:14:59.710Z,80.57
2022-10-14T23:17:25.963Z,78.97
2022-10-14T23:19:52.232Z,84.90
2022-10-14T23:22:18.499Z,120.85
2022-10-14T23:24:44.765Z,121.72
2022-10-14T23:27:11.010Z,96.68
2022-10-14T23:29:37.282Z,94.55
2022-10-14T23:32:03.539Z,80.22
2022-10-14T23:34:30.447Z,79.35
2022-10-14T23:36:56.693Z,70.00
2022-10-14T23:39:22.976Z,67.03
2022-10-14T23:41:49.222Z,73.97
2022-10-14T23:44:15.470Z,68.30
2022-10-14T23:46:41.712Z,65.03
2022-10-14T23:49:24.859Z,77.38
2022-10-14T23:51:51.602Z,69.55
2022-10-14T23:54:17.867Z,82.97
2022-10-14T23:56:44.113Z,81.88
2022-10-14T23:59:10.370Z,77.93
